Darwen, United Kingdom
Current Conditions -  °F | °C
As of 8:20 AM on Friday 19 Dec 2014 (Local Time) from EGNO Reporting Station
Rain Showers Rain Showers  
Wind Chill: 38°   Ceiling: Unl
Heat Index: 46°   Visibility: 6mi
Dew Point: 36°   Wind: 24mph
Humidity: 66%   Direction: 280°W
Pressure: 29.8"   Gusts: NA
Location:  53.7°N, 2.47°W
Report Text: EGNO 190820Z 28021KT 9999 VCSH FEW009 SCT034 08/02 Q1009
Loading
Personal Weather Stations






























Interactive Weather Map New forecast layout! Learn more

10-Day Weather Forecast

Advertisements
Track Severe Weather on mobile